Time;durP1;ratioP1;P1;durP2;ratioP2;P2;SDS_P1;SDS_P2;PMS_P1;PMS_P2;Temp;Humidity;BMP_temperature;BMP_pressure;BME280_temperature;BME280_humidity;BME280_pressure;Samples;Min_cycle;Max_cycle;Signal;HPM_P1;HPM_P2
2022/12/26 00:01:38;;;;;;;1.07;0.90;;;10.70;99.90;;;;;;5032084;28;20450;-86
2022/12/26 00:04:05;;;;;;;0.80;0.77;;;10.60;99.90;;;;;;5034660;28;20562;-84
2022/12/26 00:06:33;;;;;;;0.40;0.30;;;10.60;99.90;;;;;;5042893;28;20449;-86
2022/12/26 00:09:02;;;;;;;0.50;0.50;;;10.60;99.90;;;;;;5042933;28;20530;-88
2022/12/26 00:11:29;;;;;;;2.10;1.93;;;10.60;99.90;;;;;;5048493;28;20199;-86
2022/12/26 00:13:58;;;;;;;1.90;1.80;;;10.60;99.90;;;;;;5040014;28;20533;-84
2022/12/26 00:16:26;;;;;;;0.50;0.40;;;10.70;99.90;;;;;;5022424;28;20203;-84
2022/12/26 00:18:53;;;;;;;2.17;2.00;;;10.60;99.90;;;;;;5022357;28;20466;-84
2022/12/26 00:21:21;;;;;;;0.70;0.70;;;10.60;99.90;;;;;;5036391;28;20237;-83
2022/12/26 00:23:49;;;;;;;1.98;1.05;;;10.60;99.90;;;;;;5040141;28;20221;-86
2022/12/26 00:26:19;;;;;;;1.30;1.20;;;10.60;99.90;;;;;;5050850;28;20262;-87
2022/12/26 00:28:46;;;;;;;0.50;0.50;;;10.60;99.90;;;;;;5046875;28;20253;-83
2022/12/26 00:31:15;;;;;;;0.40;0.40;;;10.60;99.90;;;;;;5039139;28;20203;-84
2022/12/26 00:33:42;;;;;;;0.40;0.30;;;10.60;99.90;;;;;;5038668;28;20215;-87
2022/12/26 00:36:12;;;;;;;2.15;1.27;;;10.50;99.90;;;;;;5046629;28;20260;-84
2022/12/26 00:38:40;;;;;;;0.50;0.43;;;10.50;99.90;;;;;;5036851;28;20261;-84
2022/12/26 00:41:09;;;;;;;0.50;0.40;;;10.50;99.90;;;;;;5037945;28;20484;-83
2022/12/26 00:43:37;;;;;;;1.60;0.80;;;10.60;99.90;;;;;;5037149;28;20500;-82
2022/12/26 00:46:04;;;;;;;0.75;0.75;;;10.50;99.90;;;;;;5036990;28;20536;-82
2022/12/26 00:48:31;;;;;;;0.55;0.55;;;10.50;99.90;;;;;;5035998;28;20275;-84
2022/12/26 00:50:59;;;;;;;0.40;0.32;;;10.50;99.90;;;;;;5035489;28;20219;-84
2022/12/26 00:53:26;;;;;;;0.50;0.40;;;10.50;99.90;;;;;;5038822;28;20274;-84
2022/12/26 00:55:54;;;;;;;1.03;1.03;;;10.50;99.90;;;;;;5037550;28;20310;-83
2022/12/26 00:58:23;;;;;;;1.67;1.57;;;10.50;99.90;;;;;;5039124;28;20478;-84
2022/12/26 01:00:49;;;;;;;0.70;0.70;;;10.50;99.90;;;;;;5038846;28;20474;-81
2022/12/26 01:03:16;;;;;;;0.88;0.88;;;10.50;99.90;;;;;;5036092;28;20454;-84
2022/12/26 01:05:45;;;;;;;0.50;0.40;;;10.50;99.90;;;;;;5044880;28;20218;-83
2022/12/26 01:08:12;;;;;;;0.70;0.70;;;10.50;99.90;;;;;;5052330;28;20957;-86
2022/12/26 01:10:40;;;;;;;0.50;0.50;;;10.50;99.90;;;;;;5059120;28;20190;-83
2022/12/26 01:13:07;;;;;;;0.50;0.30;;;10.50;99.90;;;;;;5047446;28;20542;-84
2022/12/26 01:15:35;;;;;;;0.40;0.40;;;10.50;99.90;;;;;;5038397;28;20454;-82
2022/12/26 01:18:02;;;;;;;0.50;0.40;;;10.50;99.90;;;;;;5041292;28;20528;-82
2022/12/26 01:20:29;;;;;;;0.40;0.40;;;10.50;99.90;;;;;;5039532;28;20453;-86
2022/12/26 01:22:56;;;;;;;1.35;1.25;;;10.50;99.90;;;;;;5036517;28;20191;-84
2022/12/26 01:25:23;;;;;;;0.80;0.60;;;10.50;99.90;;;;;;5032533;28;20266;-85
2022/12/26 01:27:51;;;;;;;0.73;0.73;;;10.50;99.90;;;;;;5040292;28;20525;-84
2022/12/26 01:30:18;;;;;;;0.55;0.45;;;10.50;99.90;;;;;;5037248;28;20215;-84
2022/12/26 01:32:46;;;;;;;1.05;1.05;;;10.50;99.90;;;;;;5047850;28;20226;-83
2022/12/26 01:35:13;;;;;;;0.60;0.60;;;10.50;99.90;;;;;;5050844;28;20210;-83
2022/12/26 01:37:40;;;;;;;0.40;0.40;;;10.50;99.90;;;;;;5039198;28;20444;-82
2022/12/26 01:40:08;;;;;;;0.80;0.80;;;10.50;99.90;;;;;;5035926;28;20687;-86
2022/12/26 01:42:41;;;;;;;0.70;0.70;;;10.50;99.90;;;;;;5033693;28;20649;-83
2022/12/26 01:45:22;;;;;;;0.50;0.50;;;10.50;99.90;;;;;;5035053;28;20223;-85
2022/12/26 01:47:55;;;;;;;0.43;0.40;;;10.50;99.90;;;;;;5038435;28;20820;-83
2022/12/26 01:50:32;;;;;;;0.40;0.40;;;10.50;99.90;;;;;;5038071;28;20198;-83
2022/12/26 01:53:02;;;;;;;1.80;1.00;;;10.50;99.90;;;;;;5041805;28;20275;-83
2022/12/26 01:55:31;;;;;;;1.47;1.37;;;10.50;99.90;;;;;;5039048;28;20911;-85
2022/12/26 01:58:02;;;;;;;0.80;0.80;;;10.50;99.90;;;;;;5038807;28;20452;-85
2022/12/26 02:00:29;;;;;;;1.35;0.80;;;10.50;99.90;;;;;;5033028;28;20455;-84
2022/12/26 02:05:47;;;;;;;0.50;0.40;;;10.40;99.90;;;;;;4982214;28;20225;-83
2022/12/26 02:08:19;;;;;;;2.38;1.67;;;10.40;99.90;;;;;;5049797;28;20279;-85
2022/12/26 02:10:51;;;;;;;0.40;0.40;;;10.40;99.90;;;;;;5037715;28;20191;-85
2022/12/26 02:13:19;;;;;;;0.80;0.80;;;10.40;99.90;;;;;;5031747;28;20439;-85
2022/12/26 02:15:47;;;;;;;0.40;0.30;;;10.40;99.90;;;;;;5023326;28;20214;-83
2022/12/26 02:18:15;;;;;;;0.40;0.40;;;10.40;99.90;;;;;;5038302;28;20230;-81
2022/12/26 02:20:51;;;;;;;1.55;1.40;;;10.40;99.90;;;;;;5036047;28;20195;-83
2022/12/26 02:23:53;;;;;;;1.07;0.97;;;10.40;99.90;;;;;;5037059;28;20187;-83
2022/12/26 02:26:41;;;;;;;0.40;0.30;;;10.30;99.90;;;;;;5035402;28;20525;-81
2022/12/26 02:29:59;;;;;;;0.80;0.80;;;10.40;99.90;;;;;;5036905;28;20514;-80
2022/12/26 02:32:56;;;;;;;1.60;1.50;;;10.40;99.90;;;;;;5033896;28;20207;-82
2022/12/26 02:35:34;;;;;;;0.47;0.40;;;10.30;99.90;;;;;;5028260;28;20453;-83
2022/12/26 02:38:11;;;;;;;0.50;0.50;;;10.30;99.90;;;;;;5031407;28;20278;-82
2022/12/26 02:40:49;;;;;;;1.70;1.10;;;10.40;99.90;;;;;;5030642;28;21041;-82
2022/12/26 02:43:22;;;;;;;0.50;0.50;;;10.40;99.90;;;;;;5035089;28;20442;-81
2022/12/26 02:48:53;;;;;;;0.95;0.80;;;10.40;99.90;;;;;;5034757;28;20198;-82
2022/12/26 03:14:14;;;;;;;1.05;1.05;;;10.40;99.90;;;;;;5033611;28;20333;-83
2022/12/26 03:19:29;;;;;;;0.43;0.40;;;10.30;99.90;;;;;;5036985;28;20178;-83
2022/12/26 03:21:59;;;;;;;2.28;1.30;;;10.40;99.90;;;;;;5036627;28;20195;-83
2022/12/26 03:26:38;;;;;;;0.70;0.65;;;10.30;99.90;;;;;;5036288;28;20227;-83
2022/12/26 03:27:13;;;;;;;0.60;0.60;;;10.30;99.90;;;;;;5036964;28;20198;-82
2022/12/26 03:32:24;;;;;;;1.08;1.00;;;10.30;99.90;;;;;;5034251;28;20557;-82
2022/12/26 03:34:50;;;;;;;0.60;0.60;;;10.20;99.90;;;;;;5039259;28;20300;-81
2022/12/26 03:37:46;;;;;;;0.83;0.83;;;10.20;99.90;;;;;;5047678;28;20656;-83
2022/12/26 04:20:22;;;;;;;5.65;1.80;;;9.90;99.90;;;;;;5057326;28;20198;-83
2022/12/26 04:45:17;;;;;;;2.67;2.28;;;9.80;99.90;;;;;;5056928;28;20825;-82
2022/12/26 04:50:25;;;;;;;1.00;1.00;;;9.70;99.90;;;;;;5056619;28;20193;-82
2022/12/26 04:52:57;;;;;;;3.28;1.92;;;9.70;99.90;;;;;;5057115;28;20687;-82
2022/12/26 04:55:24;;;;;;;0.70;0.70;;;9.70;99.90;;;;;;5056251;28;20214;-82
2022/12/26 04:57:51;;;;;;;3.80;1.90;;;9.70;99.90;;;;;;5057754;28;20285;-82
2022/12/26 05:00:19;;;;;;;2.78;2.00;;;9.70;99.90;;;;;;5060133;28;20198;-82
2022/12/26 05:11:11;;;;;;;1.00;1.00;;;9.60;99.90;;;;;;5061065;28;20186;-82
2022/12/26 05:13:38;;;;;;;2.40;2.25;;;9.70;99.90;;;;;;5061215;28;20195;-83
2022/12/26 05:29:49;;;;;;;14.68;2.58;;;9.60;99.90;;;;;;5059793;28;20602;-82
2022/12/26 05:35:02;;;;;;;2.42;1.95;;;9.60;99.90;;;;;;5053848;28;20222;-80
2022/12/26 05:37:29;;;;;;;0.50;0.45;;;9.60;99.90;;;;;;5051902;28;20252;-81
2022/12/26 05:39:55;;;;;;;1.13;1.02;;;9.60;99.90;;;;;;5059963;28;20668;-82
2022/12/26 05:42:22;;;;;;;0.68;0.68;;;9.70;99.90;;;;;;5060549;28;20222;-82
2022/12/26 05:44:49;;;;;;;4.00;3.53;;;9.70;99.90;;;;;;5059106;28;20302;-82
2022/12/26 05:47:17;;;;;;;0.50;0.40;;;9.70;99.90;;;;;;5059775;28;20199;-82
2022/12/26 05:49:44;;;;;;;1.02;0.88;;;9.70;99.90;;;;;;5058909;28;20194;-82
2022/12/26 05:52:11;;;;;;;3.80;3.40;;;9.70;99.90;;;;;;5059709;28;20241;-82
2022/12/26 05:54:38;;;;;;;7.78;3.58;;;9.70;99.90;;;;;;5059115;28;20233;-81
2022/12/26 05:57:05;;;;;;;1.48;1.38;;;9.70;99.90;;;;;;5058294;28;20258;-80
2022/12/26 05:59:31;;;;;;;4.70;4.25;;;9.70;99.90;;;;;;5058240;28;20726;-79
2022/12/26 06:01:58;;;;;;;2.80;2.58;;;9.70;99.90;;;;;;5036340;28;20291;-81
2022/12/26 06:04:28;;;;;;;5.93;3.47;;;9.60;99.90;;;;;;5036011;28;20234;-81
2022/12/26 06:06:56;;;;;;;3.72;2.85;;;9.60;99.90;;;;;;5029707;28;20180;-81
2022/12/26 06:09:23;;;;;;;4.45;4.15;;;9.60;99.90;;;;;;5041533;28;20195;-80
2022/12/26 06:11:50;;;;;;;3.85;3.05;;;9.70;99.90;;;;;;5041483;28;20243;-80
2022/12/26 06:14:17;;;;;;;4.50;2.72;;;9.70;99.90;;;;;;5041240;28;20225;-79
2022/12/26 06:16:44;;;;;;;0.77;0.77;;;9.70;99.90;;;;;;5041151;28;20223;-81
2022/12/26 06:19:11;;;;;;;4.10;3.75;;;9.70;99.90;;;;;;5041469;28;20203;-80
2022/12/26 06:21:39;;;;;;;3.35;3.10;;;9.70;99.90;;;;;;5038824;28;20242;-80
2022/12/26 06:24:06;;;;;;;1.83;1.73;;;9.70;99.90;;;;;;5040564;28;20645;-81
2022/12/26 06:26:33;;;;;;;2.50;2.25;;;9.70;99.90;;;;;;5041298;28;20215;-80
2022/12/26 06:29:00;;;;;;;0.68;0.68;;;9.60;99.90;;;;;;5041492;28;20230;-80
2022/12/26 06:31:27;;;;;;;4.75;3.53;;;9.70;99.90;;;;;;5039826;28;20223;-80
2022/12/26 06:34:00;;;;;;;0.93;0.73;;;9.70;99.90;;;;;;5039637;28;20740;-76
2022/12/26 06:36:28;;;;;;;3.17;2.97;;;9.70;99.90;;;;;;5047710;28;20465;-81
2022/12/26 06:38:57;;;;;;;0.90;0.90;;;9.70;99.90;;;;;;5020190;28;20511;-80
2022/12/26 06:41:24;;;;;;;5.67;2.97;;;9.60;99.90;;;;;;5021066;28;20291;-81
2022/12/26 06:43:51;;;;;;;1.70;1.48;;;9.60;99.90;;;;;;5020227;28;20506;-79
2022/12/26 06:46:20;;;;;;;2.00;1.90;;;9.70;99.90;;;;;;5019376;28;20251;-79
2022/12/26 06:48:47;;;;;;;2.60;1.90;;;9.60;99.90;;;;;;5020349;28;20283;-81
2022/12/26 06:51:16;;;;;;;3.33;1.83;;;9.70;99.90;;;;;;5020101;28;20207;-80
2022/12/26 06:53:43;;;;;;;19.02;2.42;;;9.70;99.90;;;;;;5019740;28;20278;-78
2022/12/26 06:56:13;;;;;;;1.63;1.53;;;9.70;99.90;;;;;;5018890;28;20232;-79
2022/12/26 06:58:40;;;;;;;1.63;1.25;;;9.70;99.90;;;;;;5019479;28;20428;-80
2022/12/26 07:01:09;;;;;;;1.13;1.03;;;9.70;99.90;;;;;;5020430;28;20240;-80
2022/12/26 07:03:36;;;;;;;0.50;0.40;;;9.70;99.90;;;;;;5020178;28;20474;-80
2022/12/26 07:06:04;;;;;;;1.17;1.17;;;9.70;99.90;;;;;;5046194;28;20273;-80
2022/12/26 07:08:31;;;;;;;1.85;1.30;;;9.70;99.90;;;;;;5056531;28;20221;-81
2022/12/26 07:10:58;;;;;;;1.73;1.15;;;9.70;99.90;;;;;;5057917;28;20233;-79
2022/12/26 07:13:26;;;;;;;2.67;2.08;;;9.70;99.90;;;;;;5058407;28;20266;-80
2022/12/26 07:15:53;;;;;;;2.05;1.40;;;9.70;99.90;;;;;;5058892;28;20218;-80
2022/12/26 07:18:20;;;;;;;1.50;1.25;;;9.80;99.90;;;;;;5059839;28;20217;-79
2022/12/26 07:20:47;;;;;;;3.30;1.60;;;9.80;99.90;;;;;;5059327;28;20205;-79
2022/12/26 07:23:13;;;;;;;1.08;0.65;;;9.80;99.90;;;;;;5058181;28;20223;-81
2022/12/26 07:25:40;;;;;;;3.03;2.75;;;9.90;99.90;;;;;;5057879;28;20273;-81
2022/12/26 07:28:07;;;;;;;3.03;2.83;;;9.90;99.90;;;;;;5058743;28;20283;-80
2022/12/26 07:30:35;;;;;;;3.08;2.78;;;9.90;99.90;;;;;;5056940;28;20719;-79
2022/12/26 07:33:02;;;;;;;2.60;1.80;;;9.90;99.90;;;;;;5055519;28;20199;-79
2022/12/26 07:35:29;;;;;;;2.17;2.08;;;10.00;99.90;;;;;;5048553;28;20246;-79
2022/12/26 07:37:56;;;;;;;2.55;1.63;;;10.00;99.90;;;;;;5047187;28;20225;-80
2022/12/26 07:40:23;;;;;;;1.98;1.88;;;10.00;99.90;;;;;;5055721;28;20222;-79
2022/12/26 07:42:52;;;;;;;0.90;0.88;;;10.00;99.90;;;;;;5055207;28;20190;-80
2022/12/26 07:45:19;;;;;;;1.83;1.73;;;10.00;99.90;;;;;;5054591;28;20214;-79
2022/12/26 07:47:47;;;;;;;0.50;0.45;;;10.00;99.90;;;;;;5055334;28;20202;-80
2022/12/26 07:50:14;;;;;;;1.65;1.55;;;10.00;99.90;;;;;;5055221;28;20198;-78
2022/12/26 07:52:41;;;;;;;2.22;2.05;;;10.00;99.90;;;;;;5055495;28;20226;-81
2022/12/26 07:55:09;;;;;;;1.60;1.50;;;10.00;99.90;;;;;;5054631;28;20278;-78
2022/12/26 07:57:36;;;;;;;3.83;1.42;;;10.00;99.90;;;;;;5055408;28;20265;-80
2022/12/26 08:00:04;;;;;;;4.75;3.08;;;10.10;99.90;;;;;;5054907;28;20232;-79
2022/12/26 08:02:31;;;;;;;3.23;2.80;;;10.10;99.90;;;;;;5055740;28;20241;-80
2022/12/26 08:04:59;;;;;;;2.47;1.93;;;10.10;99.90;;;;;;5053779;28;20536;-80
2022/12/26 08:07:26;;;;;;;2.30;1.07;;;10.20;99.90;;;;;;5057179;28;20474;-80
2022/12/26 08:09:53;;;;;;;2.03;1.93;;;10.20;99.90;;;;;;5053869;28;20433;-77
2022/12/26 08:12:23;;;;;;;0.50;0.40;;;10.20;99.90;;;;;;5053944;28;20519;-81
2022/12/26 08:14:50;;;;;;;1.17;1.17;;;10.20;99.90;;;;;;5052799;28;20497;-79
2022/12/26 08:17:17;;;;;;;0.50;0.40;;;10.20;99.90;;;;;;5050276;28;20489;-80
2022/12/26 08:19:44;;;;;;;3.70;2.70;;;10.30;99.90;;;;;;5054276;28;20457;-80
2022/12/26 08:22:12;;;;;;;1.83;1.30;;;10.30;99.90;;;;;;5099146;22;20511;-77
2022/12/26 08:24:39;;;;;;;1.83;1.40;;;10.30;99.90;;;;;;5043969;28;20537;-76
2022/12/26 08:27:06;;;;;;;0.60;0.55;;;10.30;99.90;;;;;;5050995;28;20487;-76
2022/12/26 08:29:33;;;;;;;2.40;1.57;;;10.30;99.90;;;;;;5051580;28;20195;-76
2022/12/26 08:31:59;;;;;;;0.50;0.40;;;10.30;99.90;;;;;;5051273;28;20457;-76
2022/12/26 08:34:32;;;;;;;1.20;1.10;;;10.30;99.90;;;;;;5051830;28;20451;-76
2022/12/26 08:36:59;;;;;;;1.53;1.40;;;10.30;99.90;;;;;;5054497;28;20925;-78
2022/12/26 08:39:27;;;;;;;1.00;0.90;;;10.30;99.90;;;;;;5055078;28;20449;-76
2022/12/26 08:41:54;;;;;;;0.85;0.85;;;10.30;99.90;;;;;;5055214;28;20496;-77
2022/12/26 08:44:21;;;;;;;4.30;1.00;;;10.30;99.90;;;;;;5054439;28;20281;-73
2022/12/26 08:46:48;;;;;;;1.33;1.23;;;10.40;99.90;;;;;;5055690;28;20469;-76
2022/12/26 08:49:15;;;;;;;1.10;1.10;;;10.30;99.90;;;;;;5055044;28;20491;-76
2022/12/26 08:51:42;;;;;;;3.10;1.53;;;10.30;99.90;;;;;;5062241;28;20257;-76
2022/12/26 08:54:09;;;;;;;1.23;1.13;;;10.30;99.90;;;;;;5054208;28;20532;-76
2022/12/26 08:56:37;;;;;;;1.87;1.33;;;10.30;99.90;;;;;;5055160;28;20437;-76
2022/12/26 08:59:04;;;;;;;1.20;1.10;;;10.20;99.90;;;;;;5054790;28;20484;-78
2022/12/26 09:01:31;;;;;;;0.70;0.70;;;10.30;99.90;;;;;;5054663;28;20982;-76
2022/12/26 09:04:00;;;;;;;1.37;1.27;;;10.20;99.90;;;;;;5054094;28;20468;-76
2022/12/26 09:06:28;;;;;;;0.77;0.77;;;10.20;99.90;;;;;;5054919;28;20469;-76
2022/12/26 09:08:54;;;;;;;1.50;1.40;;;10.20;99.90;;;;;;5055722;28;20468;-76
2022/12/26 09:11:26;;;;;;;0.90;0.67;;;10.20;99.90;;;;;;5054514;28;20522;-76
2022/12/26 09:13:55;;;;;;;0.50;0.40;;;10.20;99.90;;;;;;5053923;28;20448;-76
2022/12/26 09:16:24;;;;;;;1.50;1.30;;;10.30;99.90;;;;;;5055015;28;20443;-76
2022/12/26 09:18:55;;;;;;;0.50;0.43;;;10.30;99.90;;;;;;5054837;28;20483;-76
2022/12/26 09:21:22;;;;;;;2.58;1.58;;;10.30;99.90;;;;;;5061328;28;20567;-76
2022/12/26 09:23:48;;;;;;;0.77;0.77;;;10.30;99.90;;;;;;5054280;28;20191;-77
2022/12/26 09:26:18;;;;;;;0.50;0.40;;;10.30;99.90;;;;;;5054380;28;20542;-76
2022/12/26 09:28:46;;;;;;;0.77;0.73;;;10.30;99.90;;;;;;5054466;28;20437;-78
2022/12/26 09:31:16;;;;;;;0.50;0.40;;;10.30;99.90;;;;;;5054950;28;20467;-77
2022/12/26 09:33:43;;;;;;;0.50;0.40;;;10.30;99.90;;;;;;5054819;28;20433;-77
2022/12/26 09:36:11;;;;;;;0.50;0.40;;;10.30;99.90;;;;;;5054050;28;20922;-78
2022/12/26 09:38:38;;;;;;;1.00;0.97;;;10.30;99.90;;;;;;5054586;28;20447;-77
2022/12/26 09:41:20;;;;;;;0.70;0.50;;;10.30;99.90;;;;;;5054809;28;20461;-77
2022/12/26 09:44:00;;;;;;;0.87;0.87;;;10.30;99.90;;;;;;5054174;28;20448;-76
2022/12/26 09:46:34;;;;;;;0.60;0.60;;;10.30;99.90;;;;;;5053381;28;20472;-77
2022/12/26 09:49:06;;;;;;;0.85;0.77;;;10.30;99.90;;;;;;5055048;28;20456;-77
2022/12/26 09:51:34;;;;;;;0.73;0.60;;;10.40;99.90;;;;;;5061935;28;20278;-77
2022/12/26 09:54:04;;;;;;;0.70;0.70;;;10.40;99.90;;;;;;5053284;28;20567;-77
2022/12/26 09:56:33;;;;;;;0.70;0.60;;;10.50;99.90;;;;;;5054271;28;20436;-77
2022/12/26 09:59:05;;;;;;;0.50;0.50;;;10.60;99.90;;;;;;5054514;28;20452;-77
2022/12/26 10:01:35;;;;;;;0.50;0.40;;;10.60;99.90;;;;;;5054503;28;20468;-77
2022/12/26 10:04:16;;;;;;;0.50;0.30;;;10.60;99.90;;;;;;5054042;28;20436;-78
2022/12/26 10:06:49;;;;;;;0.70;0.70;;;10.60;99.90;;;;;;5053950;28;20477;-76
2022/12/26 10:09:44;;;;;;;0.70;0.70;;;10.70;99.90;;;;;;5054430;28;20479;-77
2022/12/26 10:12:34;;;;;;;9.03;1.00;;;10.70;99.90;;;;;;5054642;28;20503;-77
2022/12/26 10:15:11;;;;;;;6.00;0.90;;;10.80;99.90;;;;;;5053280;28;20484;-77
2022/12/26 10:17:45;;;;;;;0.50;0.40;;;10.90;99.90;;;;;;5054201;28;20421;-77
2022/12/26 10:20:22;;;;;;;0.77;0.70;;;11.00;99.90;;;;;;5054133;28;20468;-77
2022/12/26 10:23:28;;;;;;;5.90;0.83;;;11.10;99.90;;;;;;5061315;28;20463;-77
2022/12/26 10:25:59;;;;;;;0.93;0.93;;;11.20;99.90;;;;;;5033364;28;20442;-77
2022/12/26 10:28:33;;;;;;;4.53;2.73;;;11.20;99.90;;;;;;5033767;28;20501;-77
2022/12/26 10:31:05;;;;;;;0.60;0.53;;;11.10;99.90;;;;;;5034164;28;20528;-77
2022/12/26 10:33:40;;;;;;;0.90;0.90;;;11.10;99.90;;;;;;5033551;28;20541;-76
2022/12/26 10:36:16;;;;;;;0.80;0.70;;;11.10;99.90;;;;;;5032742;28;20524;-77
2022/12/26 10:38:46;;;;;;;0.60;0.60;;;11.10;99.90;;;;;;5033890;28;20448;-77
2022/12/26 10:41:22;;;;;;;1.53;0.97;;;11.10;99.90;;;;;;5033595;28;20509;-77
2022/12/26 10:43:49;;;;;;;0.70;0.60;;;11.10;99.90;;;;;;5033441;28;20430;-77
2022/12/26 10:46:41;;;;;;;1.13;0.53;;;11.10;99.90;;;;;;5033263;28;20970;-77
2022/12/26 10:49:11;;;;;;;0.73;0.73;;;11.20;99.90;;;;;;5034527;28;20422;-77
2022/12/26 10:51:38;;;;;;;0.50;0.50;;;11.20;99.90;;;;;;5050630;28;20468;-77
2022/12/26 10:54:13;;;;;;;0.50;0.40;;;11.10;99.90;;;;;;5052711;28;20191;-77
2022/12/26 10:56:40;;;;;;;0.63;0.60;;;11.00;99.90;;;;;;5053806;28;20432;-77
2022/12/26 10:59:14;;;;;;;0.50;0.40;;;11.00;99.90;;;;;;5053163;28;20524;-77
2022/12/26 11:01:46;;;;;;;1.00;0.93;;;11.00;99.90;;;;;;5053359;28;20552;-77
2022/12/26 11:04:18;;;;;;;6.73;1.10;;;10.90;99.90;;;;;;5052543;28;20436;-77
2022/12/26 11:06:51;;;;;;;2.90;1.07;;;10.90;99.90;;;;;;5052386;28;20457;-77
2022/12/26 11:09:39;;;;;;;1.53;1.23;;;10.90;99.90;;;;;;5052845;28;20471;-77
2022/12/26 11:12:16;;;;;;;0.60;0.60;;;10.90;99.90;;;;;;5053721;28;20568;-77
2022/12/26 11:14:44;;;;;;;0.93;0.83;;;10.90;99.90;;;;;;5052654;28;20515;-77
2022/12/26 11:17:13;;;;;;;0.63;0.60;;;11.00;99.90;;;;;;5052869;28;20437;-77
2022/12/26 11:19:42;;;;;;;1.23;0.60;;;10.90;99.90;;;;;;5052948;28;20437;-77
2022/12/26 11:22:30;;;;;;;0.57;0.57;;;10.90;99.90;;;;;;5060571;28;20476;-77
2022/12/26 11:25:19;;;;;;;0.57;0.57;;;10.90;99.90;;;;;;5038067;28;20445;-77
2022/12/26 11:27:48;;;;;;;7.50;2.67;;;11.00;99.90;;;;;;5046707;28;20560;-77
2022/12/26 11:30:35;;;;;;;0.87;0.80;;;10.90;99.90;;;;;;5051846;28;21034;-76
2022/12/26 11:33:18;;;;;;;2.83;0.40;;;11.00;99.90;;;;;;5051935;28;21000;-76
2022/12/26 11:35:50;;;;;;;0.50;0.33;;;10.90;99.90;;;;;;5051829;28;20504;-76
2022/12/26 11:38:35;;;;;;;0.50;0.40;;;10.90;99.90;;;;;;5051395;28;20448;-77
2022/12/26 11:43:50;;;;;;;0.50;0.30;;;10.80;99.90;;;;;;5051905;28;20468;-77
2022/12/26 11:46:17;;;;;;;0.50;0.40;;;10.80;99.90;;;;;;5051535;28;20997;-76
2022/12/26 11:48:49;;;;;;;0.83;0.83;;;10.70;99.90;;;;;;5051590;28;20531;-77
2022/12/26 11:51:34;;;;;;;0.50;0.40;;;10.70;99.90;;;;;;5058238;28;20474;-76
2022/12/26 11:54:21;;;;;;;0.50;0.40;;;10.60;99.90;;;;;;5043602;28;20962;-76
2022/12/26 11:56:48;;;;;;;1.70;0.60;;;10.50;99.90;;;;;;5052106;28;20423;-76
2022/12/26 11:59:19;;;;;;;0.50;0.40;;;10.50;99.90;;;;;;5051880;28;20864;-76
2022/12/26 12:01:46;;;;;;;2.67;1.13;;;10.60;99.90;;;;;;5051691;28;20464;-76
2022/12/26 12:04:13;;;;;;;0.50;0.40;;;10.70;99.90;;;;;;5051184;28;21407;-77
2022/12/26 12:07:02;;;;;;;0.60;0.60;;;10.90;99.90;;;;;;5051417;28;20443;-76
2022/12/26 12:09:37;;;;;;;1.30;1.20;;;10.90;99.90;;;;;;5051175;28;20468;-76
2022/12/26 12:12:10;;;;;;;0.50;0.40;;;11.00;99.90;;;;;;5052526;28;20480;-77
2022/12/26 12:14:51;;;;;;;0.73;0.73;;;11.00;99.90;;;;;;5051415;28;20441;-77
2022/12/26 12:17:25;;;;;;;1.97;1.03;;;10.90;99.90;;;;;;5052246;28;20422;-76
2022/12/26 12:20:15;;;;;;;0.90;0.63;;;11.00;99.90;;;;;;5051720;28;20425;-77
2022/12/26 12:23:09;;;;;;;1.45;0.60;;;11.20;99.90;;;;;;5059960;28;20536;-76
2022/12/26 12:25:48;;;;;;;0.80;0.68;;;11.20;99.90;;;;;;5051096;28;20195;-75
2022/12/26 12:28:33;;;;;;;0.60;0.50;;;11.10;99.90;;;;;;5051266;28;20203;-77
2022/12/26 12:31:07;;;;;;;2.00;1.10;;;11.10;99.90;;;;;;5051387;28;20456;-76
2022/12/26 12:33:48;;;;;;;1.07;0.40;;;11.00;99.90;;;;;;5051467;28;20214;-76
2022/12/26 12:36:20;;;;;;;0.50;0.40;;;10.90;99.90;;;;;;5050637;28;20512;-76
2022/12/26 12:38:59;;;;;;;2.73;1.07;;;10.80;99.90;;;;;;5051584;28;20432;-76
2022/12/26 12:42:04;;;;;;;0.98;0.68;;;10.70;99.90;;;;;;5051107;28;20544;-76
2022/12/26 12:44:55;;;;;;;0.50;0.40;;;10.10;99.90;;;;;;5039878;28;20672;-76
2022/12/26 12:47:35;;;;;;;0.50;0.40;;;9.70;99.90;;;;;;5051169;28;20997;-76
2022/12/26 12:50:12;;;;;;;0.50;0.40;;;9.30;99.90;;;;;;5051089;28;20269;-76
2022/12/26 12:52:47;;;;;;;1.33;0.60;;;9.10;99.90;;;;;;5058768;28;20306;-76
2022/12/26 12:55:44;;;;;;;0.60;0.55;;;9.00;99.90;;;;;;5050482;28;20837;-77
2022/12/26 12:58:19;;;;;;;0.50;0.40;;;8.80;99.90;;;;;;5050723;28;20171;-76
2022/12/26 13:00:50;;;;;;;0.50;0.40;;;8.70;99.90;;;;;;5051417;28;20214;-78
2022/12/26 13:03:25;;;;;;;2.97;0.77;;;8.60;99.90;;;;;;5051266;28;20274;-76
2022/12/26 13:06:01;;;;;;;3.55;2.92;;;8.60;99.90;;;;;;5050300;28;20695;-77
2022/12/26 13:08:34;;;;;;;0.50;0.40;;;8.60;99.90;;;;;;5051441;28;20207;-75
2022/12/26 13:11:06;;;;;;;0.50;0.40;;;8.70;99.90;;;;;;5051704;28;20728;-77
2022/12/26 13:13:37;;;;;;;0.73;0.70;;;8.70;99.90;;;;;;5052301;28;20191;-77
2022/12/26 13:16:10;;;;;;;0.50;0.40;;;8.70;99.90;;;;;;5051470;28;20862;-77
2022/12/26 13:18:44;;;;;;;0.47;0.40;;;8.80;99.90;;;;;;5052191;28;20180;-77
2022/12/26 13:21:12;;;;;;;0.50;0.40;;;8.70;99.90;;;;;;5059369;28;20291;-77
2022/12/26 13:26:35;;;;;;;0.50;0.40;;;8.80;99.90;;;;;;5055070;28;20186;-77
2022/12/26 13:29:10;;;;;;;1.20;0.60;;;8.70;99.90;;;;;;5055584;28;20214;-77
2022/12/26 13:31:40;;;;;;;1.35;0.98;;;8.80;99.90;;;;;;5056500;28;20296;-77
2022/12/26 13:34:10;;;;;;;0.85;0.82;;;8.80;99.90;;;;;;5052053;28;20191;-77
2022/12/26 13:36:41;;;;;;;1.27;0.88;;;8.90;99.90;;;;;;5054114;28;20194;-76
2022/12/26 13:39:29;;;;;;;0.50;0.40;;;8.90;99.90;;;;;;5054856;28;20655;-77
2022/12/26 13:44:48;;;;;;;0.60;0.60;;;9.00;99.90;;;;;;5054696;28;20180;-77
2022/12/26 13:47:36;;;;;;;0.50;0.40;;;9.00;99.90;;;;;;5055092;28;20240;-77
2022/12/26 13:50:40;;;;;;;0.50;0.40;;;9.00;99.90;;;;;;5055742;28;20197;-77
2022/12/26 13:53:28;;;;;;;0.75;0.75;;;8.80;99.90;;;;;;5048846;28;20656;-77
2022/12/26 13:55:56;;;;;;;1.50;1.50;;;8.70;99.90;;;;;;5034069;28;20557;-77
2022/12/26 13:58:43;;;;;;;0.50;0.40;;;8.60;99.90;;;;;;5035143;28;20203;-77
2022/12/26 14:01:29;;;;;;;0.70;0.70;;;8.50;99.90;;;;;;5035106;28;20298;-77
2022/12/26 14:04:15;;;;;;;2.92;1.63;;;8.40;99.90;;;;;;5034694;28;20258;-76
2022/12/26 14:06:54;;;;;;;0.63;0.63;;;8.40;99.90;;;;;;5033994;28;20199;-77
2022/12/26 14:09:39;;;;;;;0.60;0.60;;;8.30;99.90;;;;;;5035038;28;20219;-77
2022/12/26 14:12:42;;;;;;;1.35;0.98;;;8.20;99.90;;;;;;5035592;28;20306;-77
2022/12/26 14:15:34;;;;;;;0.50;0.40;;;8.20;99.90;;;;;;5034437;28;20244;-77
2022/12/26 14:18:16;;;;;;;0.50;0.40;;;8.20;99.90;;;;;;5032267;28;20223;-77
2022/12/26 14:20:50;;;;;;;1.05;1.05;;;8.00;99.90;;;;;;5037138;28;20229;-77
2022/12/26 14:23:33;;;;;;;0.50;0.40;;;8.00;99.90;;;;;;5059222;28;20617;-77
2022/12/26 14:26:05;;;;;;;0.50;0.40;;;8.00;99.90;;;;;;5033706;28;20266;-77
2022/12/26 14:28:52;;;;;;;0.50;0.50;;;7.90;99.90;;;;;;5034863;28;20203;-76
2022/12/26 14:31:30;;;;;;;0.50;0.40;;;7.90;99.90;;;;;;5033482;28;20219;-74
2022/12/26 14:34:03;;;;;;;0.50;0.40;;;7.80;99.90;;;;;;5033055;28;20184;-77
2022/12/26 14:36:39;;;;;;;0.50;0.40;;;7.70;99.90;;;;;;5033616;28;20186;-77
2022/12/26 14:39:20;;;;;;;0.50;0.50;;;7.80;99.90;;;;;;5033667;28;20176;-77
2022/12/26 14:45:00;;;;;;;20.13;0.88;;;7.80;99.90;;;;;;5032311;28;20561;-77
2022/12/26 14:47:39;;;;;;;0.50;0.40;;;7.70;99.90;;;;;;5033427;28;20227;-76
2022/12/26 14:50:36;;;;;;;0.50;0.40;;;7.70;99.90;;;;;;5033949;28;20179;-77
2022/12/26 14:53:27;;;;;;;0.50;0.40;;;7.70;99.90;;;;;;5048222;28;20635;-78
2022/12/26 14:55:56;;;;;;;0.50;0.40;;;7.60;99.90;;;;;;5034441;28;20208;-78
2022/12/26 14:58:40;;;;;;;0.50;0.40;;;7.60;99.90;;;;;;5035549;28;20580;-77
2022/12/26 15:01:44;;;;;;;0.50;0.40;;;7.60;99.90;;;;;;5034423;28;20215;-78
2022/12/26 15:04:29;;;;;;;1.58;1.50;;;7.50;99.90;;;;;;5034131;28;20226;-78
2022/12/26 15:07:35;;;;;;;0.60;0.60;;;7.40;99.90;;;;;;5034918;28;20622;-78
2022/12/26 15:10:52;;;;;;;0.50;0.40;;;7.50;99.90;;;;;;4954258;29;20274;-77
2022/12/26 15:13:42;;;;;;;0.50;0.40;;;7.50;99.90;;;;;;5034696;28;20286;-77
2022/12/26 15:16:39;;;;;;;0.50;0.40;;;7.50;99.90;;;;;;5024461;28;20223;-77
2022/12/26 15:19:34;;;;;;;0.50;0.40;;;7.40;99.90;;;;;;5035020;28;20540;-77
2022/12/26 15:22:36;;;;;;;1.30;1.20;;;7.40;99.90;;;;;;5055092;28;20591;-77
2022/12/26 15:25:37;;;;;;;0.50;0.40;;;7.40;99.90;;;;;;5033896;28;20674;-78
2022/12/26 15:28:24;;;;;;;0.50;0.50;;;7.30;99.90;;;;;;5054349;28;20221;-77
2022/12/26 15:31:18;;;;;;;1.25;1.10;;;7.30;99.90;;;;;;5054923;28;20269;-77
2022/12/26 15:33:52;;;;;;;0.50;0.40;;;7.20;99.90;;;;;;5050458;28;20245;-77
2022/12/26 15:36:28;;;;;;;0.77;0.77;;;7.20;99.90;;;;;;5054735;28;20261;-76
2022/12/26 15:39:01;;;;;;;1.05;1.05;;;7.20;99.90;;;;;;5055363;28;20182;-79